sensor_id;sensor_type;location;lat;lon;timestamp;pressure;altitude;pressure_sealevel;temperature;humidity
38197;BME280;26543;51.976;4.616;2024-01-15T00:02:13;52589.72;;;-140.72;0.00
38197;BME280;26543;51.976;4.616;2024-01-15T00:04:41;52614.06;;;-140.72;0.00
38197;BME280;26543;51.976;4.616;2024-01-15T00:07:07;52622.19;;;-140.72;0.00
38197;BME280;26543;51.976;4.616;2024-01-15T00:09:32;52593.78;;;-140.72;0.00
38197;BME280;26543;51.976;4.616;2024-01-15T00:11:58;52557.25;;;-140.72;0.00
38197;BME280;26543;51.976;4.616;2024-01-15T00:14:23;52555.22;;;-140.72;0.00
38197;BME280;26543;51.976;4.616;2024-01-15T00:16:49;52559.28;;;-140.72;0.00
38197;BME280;26543;51.976;4.616;2024-01-15T00:19:17;52634.38;;;-140.72;0.00
38197;BME280;26543;51.976;4.616;2024-01-15T00:21:43;52610.00;;;-140.72;0.00
38197;BME280;26543;51.976;4.616;2024-01-15T00:24:08;52607.97;;;-140.72;0.00
38197;BME280;26543;51.976;4.616;2024-01-15T00:26:33;52630.31;;;-140.72;0.00
38197;BME280;26543;51.976;4.616;2024-01-15T00:28:58;52565.38;;;-140.72;0.00
38197;BME280;26543;51.976;4.616;2024-01-15T00:31:24;52575.50;;;-140.72;0.00
38197;BME280;26543;51.976;4.616;2024-01-15T00:33:49;52577.53;;;-140.72;0.00
38197;BME280;26543;51.976;4.616;2024-01-15T00:36:14;52591.75;;;-140.72;0.00
38197;BME280;26543;51.976;4.616;2024-01-15T00:38:40;52607.97;;;-140.72;0.00
38197;BME280;26543;51.976;4.616;2024-01-15T00:41:05;52573.50;;;-140.72;0.00
38197;BME280;26543;51.976;4.616;2024-01-15T00:43:30;52581.59;;;-140.72;0.00
38197;BME280;26543;51.976;4.616;2024-01-15T00:45:55;52589.72;;;-140.72;0.00
38197;BME280;26543;51.976;4.616;2024-01-15T00:48:20;52573.50;;;-140.72;0.00
38197;BME280;26543;51.976;4.616;2024-01-15T00:50:46;52569.44;;;-140.72;0.00
38197;BME280;26543;51.976;4.616;2024-01-15T00:53:11;52585.66;;;-140.72;0.00
38197;BME280;26543;51.976;4.616;2024-01-15T00:55:36;52589.72;;;-140.72;0.00
38197;BME280;26543;51.976;4.616;2024-01-15T00:58:02;52597.84;;;-140.72;0.00
38197;BME280;26543;51.976;4.616;2024-01-15T01:00:28;52585.66;;;-140.72;0.00
38197;BME280;26543;51.976;4.616;2024-01-15T01:02:53;52618.13;;;-140.72;0.00
38197;BME280;26543;51.976;4.616;2024-01-15T01:05:18;52587.69;;;-140.72;0.00
38197;BME280;26543;51.976;4.616;2024-01-15T01:07:43;52591.75;;;-140.72;0.00
38197;BME280;26543;51.976;4.616;2024-01-15T01:10:08;52593.78;;;-140.72;0.00
38197;BME280;26543;51.976;4.616;2024-01-15T01:12:34;52630.31;;;-140.72;0.00
38197;BME280;26543;51.976;4.616;2024-01-15T01:14:59;52614.06;;;-140.72;0.00
38197;BME280;26543;51.976;4.616;2024-01-15T01:17:24;52593.78;;;-140.72;0.00
38197;BME280;26543;51.976;4.616;2024-01-15T01:19:50;52614.06;;;-140.72;0.00
38197;BME280;26543;51.976;4.616;2024-01-15T01:22:15;52607.97;;;-140.72;0.00
38197;BME280;26543;51.976;4.616;2024-01-15T01:24:40;52616.09;;;-140.72;0.00
38197;BME280;26543;51.976;4.616;2024-01-15T01:27:05;52605.94;;;-140.72;0.00
38197;BME280;26543;51.976;4.616;2024-01-15T01:29:31;52575.50;;;-140.72;0.00
38197;BME280;26543;51.976;4.616;2024-01-15T01:31:56;52607.97;;;-140.72;0.00
38197;BME280;26543;51.976;4.616;2024-01-15T01:34:21;52591.75;;;-140.72;0.00
38197;BME280;26543;51.976;4.616;2024-01-15T01:36:46;52616.09;;;-140.72;0.00
38197;BME280;26543;51.976;4.616;2024-01-15T01:39:12;52626.25;;;-140.72;0.00
38197;BME280;26543;51.976;4.616;2024-01-15T01:41:37;52589.72;;;-140.72;0.00
38197;BME280;26543;51.976;4.616;2024-01-15T01:44:03;52569.44;;;-140.72;0.00
38197;BME280;26543;51.976;4.616;2024-01-15T01:46:28;52573.50;;;-140.72;0.00
38197;BME280;26543;51.976;4.616;2024-01-15T01:48:54;52593.78;;;-140.72;0.00
38197;BME280;26543;51.976;4.616;2024-01-15T01:51:20;52610.00;;;-140.72;0.00
38197;BME280;26543;51.976;4.616;2024-01-15T01:53:46;52603.94;;;-140.72;0.00
38197;BME280;26543;51.976;4.616;2024-01-15T01:56:12;52628.28;;;-140.72;0.00
38197;BME280;26543;51.976;4.616;2024-01-15T01:58:37;52585.66;;;-140.72;0.00
38197;BME280;26543;51.976;4.616;2024-01-15T02:01:03;52597.84;;;-140.72;0.00
38197;BME280;26543;51.976;4.616;2024-01-15T02:03:29;52575.50;;;-140.72;0.00
38197;BME280;26543;51.976;4.616;2024-01-15T02:05:55;52569.44;;;-140.72;0.00
38197;BME280;26543;51.976;4.616;2024-01-15T02:08:21;52543.03;;;-140.72;0.00
38197;BME280;26543;51.976;4.616;2024-01-15T02:10:46;52642.47;;;-140.72;0.00
38197;BME280;26543;51.976;4.616;2024-01-15T02:13:11;52557.25;;;-140.72;0.00
38197;BME280;26543;51.976;4.616;2024-01-15T02:15:36;52603.94;;;-140.72;0.00
38197;BME280;26543;51.976;4.616;2024-01-15T02:18:03;52614.06;;;-140.72;0.00
38197;BME280;26543;51.976;4.616;2024-01-15T02:20:28;52593.78;;;-140.72;0.00
38197;BME280;26543;51.976;4.616;2024-01-15T02:22:54;52618.13;;;-140.72;0.00
38197;BME280;26543;51.976;4.616;2024-01-15T02:25:19;52632.34;;;-140.72;0.00
38197;BME280;26543;51.976;4.616;2024-01-15T02:27:45;52565.38;;;-140.72;0.00
38197;BME280;26543;51.976;4.616;2024-01-15T02:30:11;52618.13;;;-140.72;0.00
38197;BME280;26543;51.976;4.616;2024-01-15T02:32:37;52589.72;;;-140.72;0.00
38197;BME280;26543;51.976;4.616;2024-01-15T02:35:02;52597.84;;;-140.72;0.00
38197;BME280;26543;51.976;4.616;2024-01-15T02:37:27;52585.66;;;-140.72;0.00
38197;BME280;26543;51.976;4.616;2024-01-15T02:39:52;52573.50;;;-140.72;0.00
38197;BME280;26543;51.976;4.616;2024-01-15T02:42:18;52626.25;;;-140.72;0.00
38197;BME280;26543;51.976;4.616;2024-01-15T02:44:43;52605.94;;;-140.72;0.00
38197;BME280;26543;51.976;4.616;2024-01-15T02:47:08;52573.50;;;-140.72;0.00
38197;BME280;26543;51.976;4.616;2024-01-15T02:49:33;52593.78;;;-140.72;0.00
38197;BME280;26543;51.976;4.616;2024-01-15T02:51:58;52662.78;;;-140.72;0.00
38197;BME280;26543;51.976;4.616;2024-01-15T02:54:24;52642.47;;;-140.72;0.00
38197;BME280;26543;51.976;4.616;2024-01-15T02:56:49;52585.66;;;-140.72;0.00
38197;BME280;26543;51.976;4.616;2024-01-15T02:59:14;52577.53;;;-140.72;0.00
38197;BME280;26543;51.976;4.616;2024-01-15T03:01:39;52618.13;;;-140.72;0.00
38197;BME280;26543;51.976;4.616;2024-01-15T03:04:05;52624.22;;;-140.72;0.00
38197;BME280;26543;51.976;4.616;2024-01-15T03:06:30;52612.03;;;-140.72;0.00
38197;BME280;26543;51.976;4.616;2024-01-15T03:08:55;52571.47;;;-140.72;0.00
38197;BME280;26543;51.976;4.616;2024-01-15T03:11:20;52512.59;;;-140.72;0.00
38197;BME280;26543;51.976;4.616;2024-01-15T03:13:45;52577.53;;;-140.72;0.00
38197;BME280;26543;51.976;4.616;2024-01-15T03:16:11;52605.94;;;-140.72;0.00
38197;BME280;26543;51.976;4.616;2024-01-15T03:18:36;52612.03;;;-140.72;0.00
38197;BME280;26543;51.976;4.616;2024-01-15T03:21:01;52597.84;;;-140.72;0.00
38197;BME280;26543;51.976;4.616;2024-01-15T03:23:27;52605.94;;;-140.72;0.00
38197;BME280;26543;51.976;4.616;2024-01-15T03:25:52;52624.22;;;-140.72;0.00
38197;BME280;26543;51.976;4.616;2024-01-15T03:28:17;52618.13;;;-140.72;0.00
38197;BME280;26543;51.976;4.616;2024-01-15T03:30:42;52636.38;;;-140.72;0.00
38197;BME280;26543;51.976;4.616;2024-01-15T03:33:07;52601.91;;;-140.72;0.00
38197;BME280;26543;51.976;4.616;2024-01-15T03:35:33;52610.00;;;-140.72;0.00
38197;BME280;26543;51.976;4.616;2024-01-15T03:37:58;52599.88;;;-140.72;0.00
38197;BME280;26543;51.976;4.616;2024-01-15T03:40:23;52612.03;;;-140.72;0.00
38197;BME280;26543;51.976;4.616;2024-01-15T03:42:48;52589.72;;;-140.72;0.00
38197;BME280;26543;51.976;4.616;2024-01-15T03:45:13;52630.31;;;-140.72;0.00
38197;BME280;26543;51.976;4.616;2024-01-15T03:47:39;52628.28;;;-140.72;0.00
38197;BME280;26543;51.976;4.616;2024-01-15T03:50:05;52660.75;;;-140.72;0.00
38197;BME280;26543;51.976;4.616;2024-01-15T03:52:30;52618.13;;;-140.72;0.00
38197;BME280;26543;51.976;4.616;2024-01-15T03:54:55;52652.63;;;-140.72;0.00
38197;BME280;26543;51.976;4.616;2024-01-15T03:57:20;52585.66;;;-140.72;0.00
38197;BME280;26543;51.976;4.616;2024-01-15T03:59:46;52597.84;;;-140.72;0.00
38197;BME280;26543;51.976;4.616;2024-01-15T04:02:12;52601.91;;;-140.72;0.00
38197;BME280;26543;51.976;4.616;2024-01-15T04:04:40;52545.06;;;-140.72;0.00
38197;BME280;26543;51.976;4.616;2024-01-15T04:07:05;52585.66;;;-140.72;0.00
38197;BME280;26543;51.976;4.616;2024-01-15T04:09:30;52607.97;;;-140.72;0.00
38197;BME280;26543;51.976;4.616;2024-01-15T04:11:55;52563.34;;;-140.72;0.00
38197;BME280;26543;51.976;4.616;2024-01-15T04:14:21;52638.41;;;-140.72;0.00
38197;BME280;26543;51.976;4.616;2024-01-15T04:16:46;52654.66;;;-140.72;0.00
38197;BME280;26543;51.976;4.616;2024-01-15T04:19:11;52593.78;;;-140.72;0.00
38197;BME280;26543;51.976;4.616;2024-01-15T04:21:36;52595.81;;;-140.72;0.00
38197;BME280;26543;51.976;4.616;2024-01-15T04:24:01;52589.72;;;-140.72;0.00
38197;BME280;26543;51.976;4.616;2024-01-15T04:26:27;52601.91;;;-140.72;0.00
38197;BME280;26543;51.976;4.616;2024-01-15T04:28:52;52583.63;;;-140.72;0.00
38197;BME280;26543;51.976;4.616;2024-01-15T04:31:21;52642.47;;;-140.72;0.00
38197;BME280;26543;51.976;4.616;2024-01-15T04:33:47;52620.16;;;-140.72;0.00
38197;BME280;26543;51.976;4.616;2024-01-15T04:36:12;52642.47;;;-140.72;0.00
38197;BME280;26543;51.976;4.616;2024-01-15T04:38:37;52612.03;;;-140.72;0.00
38197;BME280;26543;51.976;4.616;2024-01-15T04:41:02;52622.19;;;-140.72;0.00
38197;BME280;26543;51.976;4.616;2024-01-15T04:43:27;52666.84;;;-140.72;0.00
38197;BME280;26543;51.976;4.616;2024-01-15T04:45:53;52638.41;;;-140.72;0.00
38197;BME280;26543;51.976;4.616;2024-01-15T04:48:18;52601.91;;;-140.72;0.00
38197;BME280;26543;51.976;4.616;2024-01-15T04:50:43;52656.69;;;-140.72;0.00
38197;BME280;26543;51.976;4.616;2024-01-15T04:53:08;52650.59;;;-140.72;0.00
38197;BME280;26543;51.976;4.616;2024-01-15T04:55:33;52630.31;;;-140.72;0.00
38197;BME280;26543;51.976;4.616;2024-01-15T04:57:59;52679.00;;;-140.72;0.00
38197;BME280;26543;51.976;4.616;2024-01-15T05:00:24;52638.41;;;-140.72;0.00
38197;BME280;26543;51.976;4.616;2024-01-15T05:02:49;52670.88;;;-140.72;0.00
38197;BME280;26543;51.976;4.616;2024-01-15T05:05:14;52630.31;;;-140.72;0.00
38197;BME280;26543;51.976;4.616;2024-01-15T05:07:40;52630.31;;;-140.72;0.00
38197;BME280;26543;51.976;4.616;2024-01-15T05:10:06;52636.38;;;-140.72;0.00
38197;BME280;26543;51.976;4.616;2024-01-15T05:12:32;52668.84;;;-140.72;0.00
38197;BME280;26543;51.976;4.616;2024-01-15T05:14:57;52599.88;;;-140.72;0.00
38197;BME280;26543;51.976;4.616;2024-01-15T05:17:22;52634.38;;;-140.72;0.00
38197;BME280;26543;51.976;4.616;2024-01-15T05:19:48;52612.03;;;-140.72;0.00
38197;BME280;26543;51.976;4.616;2024-01-15T05:22:13;52626.25;;;-140.72;0.00
38197;BME280;26543;51.976;4.616;2024-01-15T05:24:38;52634.38;;;-140.72;0.00
38197;BME280;26543;51.976;4.616;2024-01-15T05:27:03;52630.31;;;-140.72;0.00
38197;BME280;26543;51.976;4.616;2024-01-15T05:29:29;52638.41;;;-140.72;0.00
38197;BME280;26543;51.976;4.616;2024-01-15T05:31:54;52618.13;;;-140.72;0.00
38197;BME280;26543;51.976;4.616;2024-01-15T05:34:19;52636.38;;;-140.72;0.00
38197;BME280;26543;51.976;4.616;2024-01-15T05:36:45;52618.13;;;-140.72;0.00
38197;BME280;26543;51.976;4.616;2024-01-15T05:39:12;52597.84;;;-140.72;0.00
38197;BME280;26543;51.976;4.616;2024-01-15T05:41:38;52585.66;;;-140.72;0.00
38197;BME280;26543;51.976;4.616;2024-01-15T05:44:03;52626.25;;;-140.72;0.00
38197;BME280;26543;51.976;4.616;2024-01-15T05:46:28;52634.38;;;-140.72;0.00
38197;BME280;26543;51.976;4.616;2024-01-15T05:48:53;52666.84;;;-140.72;0.00
38197;BME280;26543;51.976;4.616;2024-01-15T05:51:19;52666.84;;;-140.72;0.00
38197;BME280;26543;51.976;4.616;2024-01-15T05:53:44;52624.22;;;-140.72;0.00
38197;BME280;26543;51.976;4.616;2024-01-15T05:56:09;52666.84;;;-140.72;0.00
38197;BME280;26543;51.976;4.616;2024-01-15T05:58:35;52634.38;;;-140.72;0.00
38197;BME280;26543;51.976;4.616;2024-01-15T06:01:00;52622.19;;;-140.72;0.00
38197;BME280;26543;51.976;4.616;2024-01-15T06:03:25;52614.06;;;-140.72;0.00
38197;BME280;26543;51.976;4.616;2024-01-15T06:05:50;52650.59;;;-140.72;0.00
38197;BME280;26543;51.976;4.616;2024-01-15T06:08:16;52642.47;;;-140.72;0.00
38197;BME280;26543;51.976;4.616;2024-01-15T06:10:41;52648.56;;;-140.72;0.00
38197;BME280;26543;51.976;4.616;2024-01-15T06:13:06;52622.19;;;-140.72;0.00
38197;BME280;26543;51.976;4.616;2024-01-15T06:15:31;52632.34;;;-140.72;0.00
38197;BME280;26543;51.976;4.616;2024-01-15T06:17:57;52642.47;;;-140.72;0.00
38197;BME280;26543;51.976;4.616;2024-01-15T06:20:22;52638.41;;;-140.72;0.00
38197;BME280;26543;51.976;4.616;2024-01-15T06:22:47;52618.13;;;-140.72;0.00
38197;BME280;26543;51.976;4.616;2024-01-15T06:25:12;52626.25;;;-140.72;0.00
38197;BME280;26543;51.976;4.616;2024-01-15T06:27:37;52628.28;;;-140.72;0.00
38197;BME280;26543;51.976;4.616;2024-01-15T06:30:03;52660.75;;;-140.72;0.00
38197;BME280;26543;51.976;4.616;2024-01-15T06:32:28;52670.88;;;-140.72;0.00
38197;BME280;26543;51.976;4.616;2024-01-15T06:34:54;52654.66;;;-140.72;0.00
38197;BME280;26543;51.976;4.616;2024-01-15T06:37:19;52679.00;;;-140.72;0.00
38197;BME280;26543;51.976;4.616;2024-01-15T06:39:45;52646.53;;;-140.72;0.00
38197;BME280;26543;51.976;4.616;2024-01-15T06:42:10;52676.97;;;-140.72;0.00
38197;BME280;26543;51.976;4.616;2024-01-15T06:44:35;52585.66;;;-140.72;0.00
38197;BME280;26543;51.976;4.616;2024-01-15T06:47:01;52650.59;;;-140.72;0.00
38197;BME280;26543;51.976;4.616;2024-01-15T06:49:30;52646.53;;;-140.72;0.00
38197;BME280;26543;51.976;4.616;2024-01-15T06:51:56;52624.22;;;-140.72;0.00
38197;BME280;26543;51.976;4.616;2024-01-15T06:54:21;52634.38;;;-140.72;0.00
38197;BME280;26543;51.976;4.616;2024-01-15T06:56:47;52634.38;;;-140.72;0.00
38197;BME280;26543;51.976;4.616;2024-01-15T06:59:12;52662.78;;;-140.72;0.00
38197;BME280;26543;51.976;4.616;2024-01-15T07:01:37;52654.66;;;-140.72;0.00
38197;BME280;26543;51.976;4.616;2024-01-15T07:04:02;52632.34;;;-140.72;0.00
38197;BME280;26543;51.976;4.616;2024-01-15T07:06:28;52644.50;;;-140.72;0.00
38197;BME280;26543;51.976;4.616;2024-01-15T07:08:53;52626.25;;;-140.72;0.00
38197;BME280;26543;51.976;4.616;2024-01-15T07:11:18;52593.78;;;-140.72;0.00
38197;BME280;26543;51.976;4.616;2024-01-15T07:13:44;52607.97;;;-140.72;0.00
38197;BME280;26543;51.976;4.616;2024-01-15T07:16:09;52573.50;;;-140.72;0.00
38197;BME280;26543;51.976;4.616;2024-01-15T07:18:34;52591.75;;;-140.72;0.00
38197;BME280;26543;51.976;4.616;2024-01-15T07:20:59;52626.25;;;-140.72;0.00
38197;BME280;26543;51.976;4.616;2024-01-15T07:23:26;52636.38;;;-140.72;0.00
38197;BME280;26543;51.976;4.616;2024-01-15T07:25:51;52626.25;;;-140.72;0.00
38197;BME280;26543;51.976;4.616;2024-01-15T07:28:17;52626.25;;;-140.72;0.00
38197;BME280;26543;51.976;4.616;2024-01-15T07:30:42;52614.06;;;-140.72;0.00
38197;BME280;26543;51.976;4.616;2024-01-15T07:33:07;52626.25;;;-140.72;0.00
38197;BME280;26543;51.976;4.616;2024-01-15T07:35:32;52597.84;;;-140.72;0.00
38197;BME280;26543;51.976;4.616;2024-01-15T07:37:57;52612.03;;;-140.72;0.00
38197;BME280;26543;51.976;4.616;2024-01-15T07:40:23;52605.94;;;-140.72;0.00
38197;BME280;26543;51.976;4.616;2024-01-15T07:42:49;52626.25;;;-140.72;0.00
38197;BME280;26543;51.976;4.616;2024-01-15T07:45:15;52593.78;;;-140.72;0.00
38197;BME280;26543;51.976;4.616;2024-01-15T07:47:40;52593.78;;;-140.72;0.00
38197;BME280;26543;51.976;4.616;2024-01-15T07:50:05;52581.59;;;-140.72;0.00
38197;BME280;26543;51.976;4.616;2024-01-15T07:52:30;52585.66;;;-140.72;0.00
38197;BME280;26543;51.976;4.616;2024-01-15T07:54:56;52573.50;;;-140.72;0.00
38197;BME280;26543;51.976;4.616;2024-01-15T07:57:21;52646.53;;;-140.72;0.00
38197;BME280;26543;51.976;4.616;2024-01-15T07:59:46;52618.13;;;-140.72;0.00
38197;BME280;26543;51.976;4.616;2024-01-15T08:02:11;52632.34;;;-140.72;0.00
38197;BME280;26543;51.976;4.616;2024-01-15T08:04:37;52585.66;;;-140.72;0.00
38197;BME280;26543;51.976;4.616;2024-01-15T08:07:03;52612.03;;;-140.72;0.00
38197;BME280;26543;51.976;4.616;2024-01-15T08:09:29;52593.78;;;-140.72;0.00
38197;BME280;26543;51.976;4.616;2024-01-15T08:11:54;52587.69;;;-140.72;0.00
38197;BME280;26543;51.976;4.616;2024-01-15T08:14:19;52630.31;;;-140.72;0.00
38197;BME280;26543;51.976;4.616;2024-01-15T08:16:45;52616.09;;;-140.72;0.00
38197;BME280;26543;51.976;4.616;2024-01-15T08:19:10;52640.44;;;-140.72;0.00
38197;BME280;26543;51.976;4.616;2024-01-15T08:21:35;52648.56;;;-140.72;0.00
38197;BME280;26543;51.976;4.616;2024-01-15T08:24:01;52652.63;;;-140.72;0.00
38197;BME280;26543;51.976;4.616;2024-01-15T08:26:27;52652.63;;;-140.72;0.00
38197;BME280;26543;51.976;4.616;2024-01-15T08:28:52;52634.38;;;-140.72;0.00
38197;BME280;26543;51.976;4.616;2024-01-15T08:31:17;52587.69;;;-140.72;0.00
38197;BME280;26543;51.976;4.616;2024-01-15T08:33:43;52630.31;;;-140.72;0.00
38197;BME280;26543;51.976;4.616;2024-01-15T08:36:09;52618.13;;;-140.72;0.00
38197;BME280;26543;51.976;4.616;2024-01-15T08:38:34;52601.91;;;-140.72;0.00
38197;BME280;26543;51.976;4.616;2024-01-15T08:40:59;52624.22;;;-140.72;0.00
38197;BME280;26543;51.976;4.616;2024-01-15T08:43:25;52662.78;;;-140.72;0.00
38197;BME280;26543;51.976;4.616;2024-01-15T08:45:51;52612.03;;;-140.72;0.00
38197;BME280;26543;51.976;4.616;2024-01-15T08:48:16;52620.16;;;-140.72;0.00
38197;BME280;26543;51.976;4.616;2024-01-15T08:50:41;52628.28;;;-140.72;0.00
38197;BME280;26543;51.976;4.616;2024-01-15T08:53:07;52618.13;;;-140.72;0.00
38197;BME280;26543;51.976;4.616;2024-01-15T08:55:32;52634.38;;;-140.72;0.00
38197;BME280;26543;51.976;4.616;2024-01-15T08:57:57;52630.31;;;-140.72;0.00
38197;BME280;26543;51.976;4.616;2024-01-15T09:00:23;52638.41;;;-140.72;0.00
38197;BME280;26543;51.976;4.616;2024-01-15T09:02:48;52626.25;;;-140.72;0.00
38197;BME280;26543;51.976;4.616;2024-01-15T09:05:15;52610.00;;;-140.72;0.00
38197;BME280;26543;51.976;4.616;2024-01-15T09:07:41;52577.53;;;-140.72;0.00
38197;BME280;26543;51.976;4.616;2024-01-15T09:10:06;52610.00;;;-140.72;0.00
38197;BME280;26543;51.976;4.616;2024-01-15T09:12:31;52618.13;;;-140.72;0.00
38197;BME280;26543;51.976;4.616;2024-01-15T09:14:56;52618.13;;;-140.72;0.00
38197;BME280;26543;51.976;4.616;2024-01-15T09:17:22;52583.63;;;-140.72;0.00
38197;BME280;26543;51.976;4.616;2024-01-15T09:19:50;52597.84;;;-140.72;0.00
38197;BME280;26543;51.976;4.616;2024-01-15T09:22:15;52681.03;;;-140.72;0.00
38197;BME280;26543;51.976;4.616;2024-01-15T09:24:43;52593.78;;;-140.72;0.00
38197;BME280;26543;51.976;4.616;2024-01-15T09:27:08;52642.47;;;-140.72;0.00
38197;BME280;26543;51.976;4.616;2024-01-15T09:29:34;52632.34;;;-140.72;0.00
38197;BME280;26543;51.976;4.616;2024-01-15T09:32:01;52593.78;;;-140.72;0.00
38197;BME280;26543;51.976;4.616;2024-01-15T09:34:28;52599.88;;;-140.72;0.00
38197;BME280;26543;51.976;4.616;2024-01-15T09:36:53;52557.25;;;-140.72;0.00
38197;BME280;26543;51.976;4.616;2024-01-15T09:39:18;52638.41;;;-140.72;0.00
38197;BME280;26543;51.976;4.616;2024-01-15T09:41:43;52595.81;;;-140.72;0.00
38197;BME280;26543;51.976;4.616;2024-01-15T09:44:09;52595.81;;;-140.72;0.00
38197;BME280;26543;51.976;4.616;2024-01-15T09:46:35;52605.94;;;-140.72;0.00
38197;BME280;26543;51.976;4.616;2024-01-15T09:49:01;52597.84;;;-140.72;0.00
38197;BME280;26543;51.976;4.616;2024-01-15T09:51:31;52591.75;;;-140.72;0.00
38197;BME280;26543;51.976;4.616;2024-01-15T09:53:56;52585.66;;;-140.72;0.00
38197;BME280;26543;51.976;4.616;2024-01-15T09:56:22;52589.72;;;-140.72;0.00
38197;BME280;26543;51.976;4.616;2024-01-15T09:58:47;52597.84;;;-140.72;0.00
38197;BME280;26543;51.976;4.616;2024-01-15T10:01:13;52587.69;;;-140.72;0.00
38197;BME280;26543;51.976;4.616;2024-01-15T10:03:40;52589.72;;;-140.72;0.00
38197;BME280;26543;51.976;4.616;2024-01-15T10:06:05;52595.81;;;-140.72;0.00
38197;BME280;26543;51.976;4.616;2024-01-15T10:08:36;52605.94;;;-140.72;0.00
38197;BME280;26543;51.976;4.616;2024-01-15T10:11:01;52605.94;;;-140.72;0.00
38197;BME280;26543;51.976;4.616;2024-01-15T10:13:26;52652.63;;;-140.72;0.00
38197;BME280;26543;51.976;4.616;2024-01-15T10:15:52;52595.81;;;-140.72;0.00
38197;BME280;26543;51.976;4.616;2024-01-15T10:18:18;52618.13;;;-140.72;0.00
38197;BME280;26543;51.976;4.616;2024-01-15T10:20:43;52658.72;;;-140.72;0.00
38197;BME280;26543;51.976;4.616;2024-01-15T10:23:08;52610.00;;;-140.72;0.00
38197;BME280;26543;51.976;4.616;2024-01-15T10:25:35;52620.16;;;-140.72;0.00
38197;BME280;26543;51.976;4.616;2024-01-15T10:28:01;52601.91;;;-140.72;0.00
38197;BME280;26543;51.976;4.616;2024-01-15T10:30:27;52644.50;;;-140.72;0.00
38197;BME280;26543;51.976;4.616;2024-01-15T10:32:59;52593.78;;;-140.72;0.00
38197;BME280;26543;51.976;4.616;2024-01-15T10:35:28;52622.19;;;-140.72;0.00
38197;BME280;26543;51.976;4.616;2024-01-15T10:37:54;52646.53;;;-140.72;0.00
38197;BME280;26543;51.976;4.616;2024-01-15T10:40:19;52555.22;;;-140.72;0.00
38197;BME280;26543;51.976;4.616;2024-01-15T10:42:44;52587.69;;;-140.72;0.00
38197;BME280;26543;51.976;4.616;2024-01-15T10:45:11;52587.69;;;-140.72;0.00
38197;BME280;26543;51.976;4.616;2024-01-15T10:47:37;52526.81;;;-140.72;0.00
38197;BME280;26543;51.976;4.616;2024-01-15T10:50:02;52553.19;;;-140.72;0.00
38197;BME280;26543;51.976;4.616;2024-01-15T10:52:28;52549.13;;;-140.72;0.00
38197;BME280;26543;51.976;4.616;2024-01-15T10:54:54;52593.78;;;-140.72;0.00
38197;BME280;26543;51.976;4.616;2024-01-15T10:57:20;52553.19;;;-140.72;0.00
38197;BME280;26543;51.976;4.616;2024-01-15T10:59:46;52567.41;;;-140.72;0.00
38197;BME280;26543;51.976;4.616;2024-01-15T11:02:12;52571.47;;;-140.72;0.00
38197;BME280;26543;51.976;4.616;2024-01-15T11:04:38;52573.50;;;-140.72;0.00
38197;BME280;26543;51.976;4.616;2024-01-15T11:07:03;52575.50;;;-140.72;0.00
38197;BME280;26543;51.976;4.616;2024-01-15T11:09:30;52589.72;;;-140.72;0.00
38197;BME280;26543;51.976;4.616;2024-01-15T11:12:09;52559.28;;;-140.72;0.00
38197;BME280;26543;51.976;4.616;2024-01-15T11:14:38;52587.69;;;-140.72;0.00
38197;BME280;26543;51.976;4.616;2024-01-15T11:17:03;52563.34;;;-140.72;0.00
38197;BME280;26543;51.976;4.616;2024-01-15T11:19:46;52543.03;;;-140.72;0.00
38197;BME280;26543;51.976;4.616;2024-01-15T11:24:55;52496.38;;;-140.72;0.00
38197;BME280;26543;51.976;4.616;2024-01-15T11:27:42;52518.69;;;-140.72;0.00
38197;BME280;26543;51.976;4.616;2024-01-15T11:30:09;52595.81;;;-140.72;0.00
38197;BME280;26543;51.976;4.616;2024-01-15T11:32:38;52534.94;;;-140.72;0.00
38197;BME280;26543;51.976;4.616;2024-01-15T11:35:07;52528.84;;;-140.72;0.00
38197;BME280;26543;51.976;4.616;2024-01-15T11:40:20;52496.38;;;-140.72;0.00
38197;BME280;26543;51.976;4.616;2024-01-15T11:42:45;52484.19;;;-140.72;0.00
38197;BME280;26543;51.976;4.616;2024-01-15T11:45:12;52492.31;;;-140.72;0.00
38197;BME280;26543;51.976;4.616;2024-01-15T11:50:18;52508.56;;;-140.72;0.00
38197;BME280;26543;51.976;4.616;2024-01-15T11:52:45;52534.94;;;-140.72;0.00
38197;BME280;26543;51.976;4.616;2024-01-15T11:55:27;52583.63;;;-140.72;0.00
38197;BME280;26543;51.976;4.616;2024-01-15T11:57:54;52585.66;;;-140.72;0.00
38197;BME280;26543;51.976;4.616;2024-01-15T12:00:23;52488.25;;;-140.72;0.00
38197;BME280;26543;51.976;4.616;2024-01-15T12:02:49;52539.00;;;-140.72;0.00
38197;BME280;26543;51.976;4.616;2024-01-15T12:05:16;52567.41;;;-140.72;0.00
38197;BME280;26543;51.976;4.616;2024-01-15T12:07:42;52610.00;;;-140.72;0.00
38197;BME280;26543;51.976;4.616;2024-01-15T12:10:14;52585.66;;;-140.72;0.00
38197;BME280;26543;51.976;4.616;2024-01-15T12:12:59;52583.63;;;-140.72;0.00
38197;BME280;26543;51.976;4.616;2024-01-15T12:15:25;52601.91;;;-140.72;0.00
38197;BME280;26543;51.976;4.616;2024-01-15T12:17:51;52577.53;;;-140.72;0.00
38197;BME280;26543;51.976;4.616;2024-01-15T12:20:17;52601.91;;;-140.72;0.00
38197;BME280;26543;51.976;4.616;2024-01-15T12:22:42;52581.59;;;-140.72;0.00
38197;BME280;26543;51.976;4.616;2024-01-15T12:25:08;52541.03;;;-140.72;0.00
38197;BME280;26543;51.976;4.616;2024-01-15T12:27:33;52553.19;;;-140.72;0.00
38197;BME280;26543;51.976;4.616;2024-01-15T12:29:59;52516.66;;;-140.72;0.00
38197;BME280;26543;51.976;4.616;2024-01-15T12:32:24;52530.88;;;-140.72;0.00
38197;BME280;26543;51.976;4.616;2024-01-15T12:34:50;52532.91;;;-140.72;0.00
38197;BME280;26543;51.976;4.616;2024-01-15T12:37:15;52510.59;;;-140.72;0.00
38197;BME280;26543;51.976;4.616;2024-01-15T12:39:43;52518.69;;;-140.72;0.00
38197;BME280;26543;51.976;4.616;2024-01-15T12:42:08;52478.13;;;-140.72;0.00
38197;BME280;26543;51.976;4.616;2024-01-15T12:44:33;52474.06;;;-140.72;0.00
38197;BME280;26543;51.976;4.616;2024-01-15T12:46:59;52522.75;;;-140.72;0.00
38197;BME280;26543;51.976;4.616;2024-01-15T12:49:25;52514.63;;;-140.72;0.00
38197;BME280;26543;51.976;4.616;2024-01-15T12:51:54;52541.03;;;-140.72;0.00